Time;durP1;ratioP1;P1;durP2;ratioP2;P2;SDS_P1;SDS_P2;PMS_P1;PMS_P2;Temp;Humidity;BMP_temperature;BMP_pressure;BME280_temperature;BME280_humidity;BME280_pressure;Samples;Min_cycle;Max_cycle;Signal;HPM_P1;HPM_P2
2023/09/11 00:00:05;;;;;;;51.80;5.77;;;;;;;23.90;62.24;99487.31;7308046;19;130025;-40
2023/09/11 00:02:30;;;;;;;36.05;4.95;;;;;;;23.82;62.25;99474.16;7308481;19;129186;-36
2023/09/11 00:04:55;;;;;;;65.40;6.30;;;;;;;23.93;62.54;99486.19;7308487;19;129346;-40
2023/09/11 00:07:21;;;;;;;126.97;9.73;;;;;;;23.92;62.59;99480.09;7308648;19;129247;-42
2023/09/11 00:09:46;;;;;;;17.33;4.00;;;;;;;23.93;62.21;99489.63;7308740;19;129142;-39
2023/09/11 00:12:12;;;;;;;33.80;4.80;;;;;;;23.93;62.93;99492.25;7307148;19;129629;-41
2023/09/11 00:14:37;;;;;;;64.90;6.10;;;;;;;23.92;62.93;99485.34;7311103;19;130041;-41
2023/09/11 00:17:02;;;;;;;28.50;5.00;;;;;;;23.93;62.60;99486.19;7317022;19;130951;-43
2023/09/11 00:19:28;;;;;;;35.00;4.87;;;;;;;23.93;62.68;99480.94;7312879;19;130223;-37
2023/09/11 00:21:53;;;;;;;33.40;4.33;;;;;;;23.93;62.29;99481.72;7313822;19;128979;-41
2023/09/11 00:24:19;;;;;;;93.53;7.80;;;;;;;23.93;62.84;99486.19;7313686;19;130099;-44
2023/09/11 00:26:44;;;;;;;37.93;5.00;;;;;;;23.93;62.97;99481.72;7313862;19;129740;-44
2023/09/11 00:29:09;;;;;;;62.93;6.47;;;;;;;23.92;62.30;99476.63;7313926;19;130276;-38
2023/09/11 00:31:34;;;;;;;42.43;5.13;;;;;;;23.92;62.55;99474.03;7314863;19;129014;-41
2023/09/11 00:34:00;;;;;;;76.70;6.63;;;;;;;23.91;62.46;99475.84;7315133;19;130176;-44
2023/09/11 00:36:25;;;;;;;40.17;5.10;;;;;;;23.89;62.97;99475.16;7314174;19;129457;-40
2023/09/11 00:38:51;;;;;;;64.97;7.00;;;;;;;23.90;63.12;99471.56;7314893;19;130190;-44
2023/09/11 00:41:16;;;;;;;43.13;5.47;;;;;;;23.91;62.96;99472.38;7313591;19;129382;-42
2023/09/11 00:43:41;;;;;;;63.77;6.50;;;;;;;23.89;62.95;99472.53;7315458;19;129467;-38
2023/09/11 00:46:07;;;;;;;65.37;6.67;;;;;;;23.91;62.72;99472.38;7311488;19;129143;-41
2023/09/11 00:48:32;;;;;;;40.03;4.90;;;;;;;23.91;62.96;99473.22;7314721;19;129592;-36
2023/09/11 00:50:58;;;;;;;107.53;8.50;;;;;;;23.90;62.47;99466.31;7311641;19;129108;-44
2023/09/11 00:53:25;;;;;;;19.13;4.30;;;;;;;23.88;63.20;99465.63;7315477;19;130316;-43
2023/09/11 00:55:52;;;;;;;58.25;6.22;;;;;;;23.88;62.70;99457.75;7313906;19;130361;-42
2023/09/11 00:58:17;;;;;;;65.95;6.65;;;;;;;23.90;63.01;99460.25;7310340;19;129293;-38
2023/09/11 01:00:44;;;;;;;80.70;7.20;;;;;;;23.90;62.82;99466.31;7312235;19;128964;-40
2023/09/11 01:03:11;;;;;;;43.88;5.30;;;;;;;23.81;62.76;99446.25;7313025;19;130208;-44
2023/09/11 01:05:38;;;;;;;14.07;4.18;;;;;;;23.89;63.03;99459.41;7313085;19;129311;-42
2023/09/11 01:08:03;;;;;;;85.03;7.83;;;;;;;23.89;62.32;99456.78;7310687;19;129443;-39
2023/09/11 01:10:29;;;;;;;79.07;7.00;;;;;;;23.88;62.70;99455.13;7312063;19;129003;-37
2023/09/11 01:12:55;;;;;;;44.90;5.43;;;;;;;23.89;62.71;99448.91;7314763;19;130045;-41
2023/09/11 01:15:20;;;;;;;30.63;4.27;;;;;;;23.89;63.03;99454.16;7314224;19;129717;-37
2023/09/11 01:18:13;;;;;;;58.50;6.47;;;;;;;23.82;63.57;99440.00;7314671;19;129410;-42
2023/09/11 01:21:16;;;;;;;28.38;4.93;;;;;;;23.92;63.11;99447.75;7311399;19;129526;-41
2023/09/11 01:24:00;;;;;;;32.10;4.55;;;;;;;23.90;63.14;99444.50;7313511;19;131183;-41
2023/09/11 01:26:56;;;;;;;42.10;5.15;;;;;;;23.82;62.98;99421.63;7313591;19;129423;-37
2023/09/11 01:29:28;;;;;;;67.20;6.47;;;;;;;23.90;62.67;99440.03;7312366;19;129297;-37
2023/09/11 01:31:54;;;;;;;43.60;5.43;;;;;;;23.89;62.36;99438.41;7312808;19;129362;-41
2023/09/11 01:34:20;;;;;;;55.57;6.03;;;;;;;23.82;62.97;99432.13;7313886;19;129629;-40
2023/09/11 01:36:45;;;;;;;50.57;5.60;;;;;;;23.90;63.00;99445.28;7314585;19;129231;-42
2023/09/11 01:39:11;;;;;;;44.60;5.43;;;;;;;23.89;62.45;99442.81;7313008;19;128790;-37
2023/09/11 01:41:42;;;;;;;63.73;6.43;;;;;;;23.80;62.96;99422.78;7311890;19;129461;-40
2023/09/11 01:44:18;;;;;;;76.22;7.40;;;;;;;23.90;63.65;99445.28;7312344;19;129710;-39
2023/09/11 01:46:46;;;;;;;51.30;5.95;;;;;;;23.89;62.96;99443.66;7313015;19;129868;-42
2023/09/11 01:49:13;;;;;;;164.18;12.80;;;;;;;23.89;62.96;99448.91;7309865;19;131020;-39
2023/09/11 01:51:40;;;;;;;53.25;5.88;;;;;;;23.89;62.95;99448.91;7311315;19;129499;-41
2023/09/11 01:54:07;;;;;;;60.35;6.47;;;;;;;23.90;62.83;99440.03;7309097;19;130062;-39
2023/09/11 01:56:33;;;;;;;134.50;10.13;;;;;;;23.89;62.42;99433.16;7309747;19;130020;-40
2023/09/11 01:58:58;;;;;;;39.93;5.23;;;;;;;23.88;63.06;99431.50;7311863;19;128909;-45
2023/09/11 02:01:24;;;;;;;36.30;5.13;;;;;;;23.90;62.77;99434.78;7311852;19;129426;-41
2023/09/11 02:03:49;;;;;;;40.60;5.43;;;;;;;23.90;62.31;99424.28;7309832;19;129815;-43
2023/09/11 02:06:14;;;;;;;89.00;7.70;;;;;;;23.91;62.62;99435.63;7311502;19;129700;-41
2023/09/11 02:08:40;;;;;;;38.03;5.40;;;;;;;23.91;62.65;99427.75;7312336;19;129020;-41
2023/09/11 02:11:07;;;;;;;60.10;6.50;;;;;;;23.85;62.30;99420.50;7306449;19;130362;-40
2023/09/11 02:13:32;;;;;;;54.85;6.15;;;;;;;23.90;62.29;99424.28;7312038;19;129408;-39
2023/09/11 02:15:57;;;;;;;58.20;6.20;;;;;;;23.91;62.77;99425.94;7313165;19;129630;-41
2023/09/11 02:18:23;;;;;;;62.70;6.57;;;;;;;23.91;62.60;99428.56;7312036;19;129038;-42
2023/09/11 02:20:48;;;;;;;34.60;5.20;;;;;;;23.93;62.34;99433.66;7310210;19;130132;-42
2023/09/11 02:23:15;;;;;;;86.93;7.87;;;;;;;23.80;62.63;99407.84;7306650;19;130925;-42
2023/09/11 02:25:41;;;;;;;85.47;7.85;;;;;;;23.83;62.33;99414.59;7307619;19;131242;-47
2023/09/11 02:28:06;;;;;;;63.27;7.37;;;;;;;23.91;62.48;99423.31;7312159;19;129969;-38
2023/09/11 02:30:32;;;;;;;59.90;6.70;;;;;;;23.80;62.40;99407.84;7308632;19;129278;-42
2023/09/11 02:32:57;;;;;;;37.47;5.87;;;;;;;23.91;62.63;99425.94;7312156;19;129849;-42
2023/09/11 02:35:23;;;;;;;68.03;6.93;;;;;;;23.91;62.33;99420.69;7312474;19;129229;-44
2023/09/11 02:37:48;;;;;;;76.47;7.70;;;;;;;23.91;62.30;99420.69;7309933;19;129432;-36
2023/09/11 02:40:14;;;;;;;61.23;6.13;;;;;;;23.80;62.39;99407.84;7308917;19;129059;-39
2023/09/11 02:42:39;;;;;;;73.87;7.13;;;;;;;23.91;62.73;99423.31;7306616;19;130681;-42
2023/09/11 02:45:05;;;;;;;51.23;5.97;;;;;;;23.91;62.96;99420.69;7310581;19;129771;-41
2023/09/11 02:47:30;;;;;;;34.30;5.10;;;;;;;23.91;62.32;99420.69;7312313;19;129140;-40
2023/09/11 02:49:55;;;;;;;42.27;5.80;;;;;;;23.92;62.55;99421.50;7309958;19;129131;-40
2023/09/11 02:52:21;;;;;;;85.43;7.27;;;;;;;23.93;62.88;99417.91;7310323;19;130046;-40
2023/09/11 02:54:46;;;;;;;41.57;6.00;;;;;;;23.93;62.29;99417.91;7310477;19;130168;-42
2023/09/11 02:57:11;;;;;;;43.87;5.77;;;;;;;23.93;62.54;99416.09;7309760;19;129705;-39
2023/09/11 02:59:38;;;;;;;34.07;5.03;;;;;;;23.94;62.18;99420.38;7309719;19;129219;-40
2023/09/11 03:02:03;;;;;;;87.05;7.55;;;;;;;23.94;62.51;99415.13;7309379;19;130667;-44
2023/09/11 03:04:29;;;;;;;46.87;5.53;;;;;;;23.93;62.26;99421.34;7309665;19;129152;-39
2023/09/11 03:06:54;;;;;;;41.43;6.10;;;;;;;23.94;62.28;99415.13;7308803;19;129395;-41
2023/09/11 03:09:19;;;;;;;58.27;6.77;;;;;;;23.94;62.55;99417.75;7310001;19;129908;-37
2023/09/11 03:11:45;;;;;;;137.70;10.87;;;;;;;23.94;62.51;99411.66;7308967;19;130808;-41
2023/09/11 03:14:11;;;;;;;65.60;6.93;;;;;;;23.82;62.24;99384.88;7311192;19;129648;-42
2023/09/11 03:16:43;;;;;;;47.92;5.65;;;;;;;23.93;62.39;99408.22;7308076;19;130391;-41
2023/09/11 03:19:08;;;;;;;47.30;6.28;;;;;;;23.94;62.94;99402.00;7307567;19;129374;-42
2023/09/11 03:21:34;;;;;;;78.57;7.40;;;;;;;23.94;62.24;99403.78;7309590;19;129769;-43
2023/09/11 03:23:59;;;;;;;32.47;5.50;;;;;;;23.94;62.24;99404.63;7309758;19;129751;-36
2023/09/11 03:26:24;;;;;;;62.90;6.43;;;;;;;23.83;62.23;99381.25;7310364;19;129830;-43
2023/09/11 03:28:50;;;;;;;43.33;5.40;;;;;;;23.93;62.16;99400.34;7307281;19;129273;-41
2023/09/11 03:31:16;;;;;;;70.87;7.33;;;;;;;23.95;62.91;99400.16;7307413;19;130418;-39
2023/09/11 03:33:41;;;;;;;49.33;6.00;;;;;;;23.94;62.87;99399.38;7309124;19;131349;-41
2023/09/11 03:36:06;;;;;;;68.70;7.37;;;;;;;23.95;62.83;99389.66;7308726;19;129416;-42
2023/09/11 03:38:32;;;;;;;87.27;7.63;;;;;;;23.94;62.44;99396.75;7305820;19;129705;-43
2023/09/11 03:40:58;;;;;;;46.77;6.37;;;;;;;23.96;62.82;99401.84;7308572;19;130043;-38
2023/09/11 03:43:23;;;;;;;41.60;6.40;;;;;;;23.95;62.59;99400.16;7309614;19;129213;-39
2023/09/11 03:45:48;;;;;;;39.40;5.43;;;;;;;23.94;62.16;99394.13;7305611;19;129262;-40
2023/09/11 03:48:14;;;;;;;101.27;9.30;;;;;;;23.95;62.76;99394.91;7314178;19;129110;-38
2023/09/11 03:50:39;;;;;;;46.27;5.70;;;;;;;23.94;62.16;99399.38;7318124;19;129619;-41
2023/09/11 03:53:04;;;;;;;31.30;5.27;;;;;;;23.95;62.00;99395.75;7323717;19;129893;-38
2023/09/11 03:55:30;;;;;;;28.00;5.53;;;;;;;23.94;62.05;99399.38;7323512;19;128791;-40
2023/09/11 03:57:55;;;;;;;73.47;6.70;;;;;;;23.95;62.77;99389.66;7324188;19;129464;-43
2023/09/11 04:00:21;;;;;;;135.27;10.87;;;;;;;23.83;62.72;99375.22;7315886;19;130158;-37
2023/09/11 04:02:46;;;;;;;27.20;4.83;;;;;;;23.94;61.94;99388.03;7320984;19;129561;-40
2023/09/11 04:05:11;;;;;;;69.07;7.53;;;;;;;23.82;62.39;99369.13;7317814;19;131174;-39
2023/09/11 04:07:37;;;;;;;79.23;7.17;;;;;;;23.93;62.89;99381.16;7323280;19;129819;-37
2023/09/11 04:10:02;;;;;;;53.10;6.17;;;;;;;23.93;62.34;99383.78;7320267;19;130061;-42
2023/09/11 04:12:28;;;;;;;38.80;5.80;;;;;;;23.93;62.13;99381.94;7320275;19;129554;-40
2023/09/11 04:14:53;;;;;;;46.60;5.87;;;;;;;23.94;62.41;99388.88;7322871;19;129058;-42
2023/09/11 04:17:18;;;;;;;125.83;10.40;;;;;;;23.91;62.19;99381.31;7316735;19;130903;-39
2023/09/11 04:19:44;;;;;;;36.90;6.07;;;;;;;23.93;62.51;99383.78;7321465;19;130252;-38
2023/09/11 04:22:10;;;;;;;44.70;6.30;;;;;;;23.93;62.16;99381.94;7320479;19;130571;-36
2023/09/11 04:24:36;;;;;;;44.60;6.07;;;;;;;23.91;62.46;99383.94;7319959;19;128802;-42
2023/09/11 04:27:02;;;;;;;52.80;6.83;;;;;;;23.84;62.14;99363.72;7323592;19;130292;-39
2023/09/11 04:29:29;;;;;;;41.60;5.90;;;;;;;23.80;62.55;99360.59;7317631;19;131427;-38
2023/09/11 04:31:55;;;;;;;67.10;7.07;;;;;;;23.92;62.12;99382.94;7319736;19;130427;-40
2023/09/11 04:34:20;;;;;;;76.70;8.03;;;;;;;23.82;62.30;99360.41;7319061;19;129128;-42
2023/09/11 04:36:45;;;;;;;61.70;6.93;;;;;;;23.94;62.37;99382.78;7319788;19;129886;-41
2023/09/11 04:39:13;;;;;;;40.20;6.03;;;;;;;23.94;62.79;99383.63;7321656;19;129458;-38
2023/09/11 04:41:39;;;;;;;36.90;6.00;;;;;;;23.93;62.78;99376.69;7318652;19;129582;-41
2023/09/11 04:44:04;;;;;;;59.70;6.67;;;;;;;23.94;62.09;99383.63;7318800;19;129104;-44
2023/09/11 04:46:29;;;;;;;58.37;6.90;;;;;;;23.94;62.33;99378.38;7318040;19;130755;-41
2023/09/11 04:48:58;;;;;;;36.30;5.47;;;;;;;23.94;62.42;99377.53;7315898;19;131861;-39
2023/09/11 04:51:24;;;;;;;66.65;7.20;;;;;;;23.93;63.03;99376.69;7319512;19;129344;-36
2023/09/11 04:53:50;;;;;;;69.70;7.10;;;;;;;23.94;62.73;99377.53;7321909;19;129735;-39
2023/09/11 04:56:15;;;;;;;92.53;8.80;;;;;;;23.94;62.12;99373.13;7318019;19;129031;-41
2023/09/11 04:58:41;;;;;;;45.97;6.30;;;;;;;23.95;61.66;99372.13;7315826;19;130179;-36
2023/09/11 05:01:08;;;;;;;46.23;6.13;;;;;;;23.93;62.41;99376.69;7307174;19;129533;-41
2023/09/11 05:03:33;;;;;;;135.55;10.43;;;;;;;23.93;62.13;99374.06;7305345;19;129618;-43
2023/09/11 05:05:59;;;;;;;63.27;7.23;;;;;;;23.93;62.47;99376.69;7304982;19;129043;-41
2023/09/11 05:08:24;;;;;;;113.50;9.77;;;;;;;23.95;62.23;99385.25;7305845;19;129724;-40
2023/09/11 05:10:50;;;;;;;58.80;6.83;;;;;;;23.91;62.58;99370.81;7301565;19;129678;-41
2023/09/11 05:13:15;;;;;;;113.53;9.00;;;;;;;23.94;62.24;99381.00;7300823;19;130372;-39
2023/09/11 05:15:40;;;;;;;66.07;6.80;;;;;;;23.95;62.78;99380.00;7307586;19;129221;-41
2023/09/11 05:18:06;;;;;;;60.23;7.00;;;;;;;23.95;62.50;99385.25;7309041;19;129819;-40
2023/09/11 05:20:31;;;;;;;86.27;8.03;;;;;;;23.95;62.98;99382.63;7308144;19;129558;-44
2023/09/11 05:22:57;;;;;;;60.13;7.20;;;;;;;23.96;62.81;99381.66;7310177;19;130689;-39
2023/09/11 05:25:23;;;;;;;64.83;7.27;;;;;;;23.95;62.61;99385.25;7304210;19;129347;-43
2023/09/11 05:27:49;;;;;;;68.68;7.03;;;;;;;23.95;62.70;99381.78;7310689;19;130200;-40
2023/09/11 05:30:14;;;;;;;108.57;9.23;;;;;;;23.96;62.71;99396.59;7303550;19;130549;-42
2023/09/11 05:32:40;;;;;;;124.10;10.20;;;;;;;23.94;62.21;99391.50;7309077;19;129471;-40
2023/09/11 05:35:06;;;;;;;70.27;7.90;;;;;;;23.94;62.08;99394.13;7310766;19;129419;-39
2023/09/11 05:37:31;;;;;;;57.42;6.90;;;;;;;23.94;62.22;99394.13;7311101;19;129582;-40
2023/09/11 05:39:57;;;;;;;85.97;8.27;;;;;;;23.93;61.97;99389.03;7308646;19;129137;-40
2023/09/11 05:42:22;;;;;;;77.87;7.63;;;;;;;23.94;62.05;99383.63;7311875;19;129059;-40
2023/09/11 05:44:48;;;;;;;72.47;8.23;;;;;;;23.94;62.09;99383.63;7305823;19;130392;-40
2023/09/11 05:47:14;;;;;;;133.87;11.93;;;;;;;23.84;62.31;99367.16;7306231;19;129611;-41
2023/09/11 05:49:39;;;;;;;121.90;10.27;;;;;;;23.95;62.46;99392.28;7303038;19;129821;-43
2023/09/11 05:52:05;;;;;;;30.20;6.00;;;;;;;23.94;62.07;99385.41;7309533;19;130386;-41
2023/09/11 05:54:31;;;;;;;78.63;7.93;;;;;;;23.95;62.18;99385.25;7306930;19;130121;-41
2023/09/11 05:56:56;;;;;;;22.27;5.23;;;;;;;23.83;62.61;99368.13;7310438;19;129261;-39
2023/09/11 05:59:21;;;;;;;146.60;11.73;;;;;;;23.95;62.07;99385.25;7303276;19;131415;-38
2023/09/11 06:01:47;;;;;;;31.67;5.77;;;;;;;23.95;62.61;99389.66;7307494;19;131501;-42
2023/09/11 06:04:12;;;;;;;122.27;11.40;;;;;;;23.93;62.58;99392.44;7306136;19;131513;-42
2023/09/11 06:06:38;;;;;;;55.03;6.80;;;;;;;23.94;62.12;99394.13;7305251;19;130287;-44
2023/09/11 06:09:07;;;;;;;102.80;10.00;;;;;;;23.94;62.53;99396.75;7307521;19;129187;-38
2023/09/11 06:11:36;;;;;;;38.10;5.95;;;;;;;23.93;61.93;99387.19;7306612;19;129545;-39
2023/09/11 06:14:01;;;;;;;125.55;11.10;;;;;;;23.93;62.27;99392.44;7308004;19;129967;-41
2023/09/11 06:16:27;;;;;;;95.87;9.43;;;;;;;23.93;61.96;99391.66;7307070;19;129688;-39
2023/09/11 06:18:52;;;;;;;75.80;7.33;;;;;;;23.92;62.04;99390.81;7302135;19;132240;-43
2023/09/11 06:21:18;;;;;;;53.87;7.40;;;;;;;23.92;62.01;99393.44;7311045;19;128937;-37
2023/09/11 06:23:43;;;;;;;45.37;6.93;;;;;;;23.93;61.93;99387.19;7307424;19;130844;-40
2023/09/11 06:26:09;;;;;;;34.27;5.53;;;;;;;23.92;62.15;99393.44;7306426;19;133018;-42
2023/09/11 06:28:34;;;;;;;79.73;8.27;;;;;;;23.93;62.54;99392.44;7309820;19;129644;-39
2023/09/11 06:31:00;;;;;;;45.73;7.17;;;;;;;23.93;62.36;99392.44;7305264;19;129154;-41
2023/09/11 06:33:27;;;;;;;90.03;9.23;;;;;;;23.93;62.54;99396.91;7309208;19;129525;-41
2023/09/11 06:35:53;;;;;;;57.25;6.93;;;;;;;23.93;62.55;99397.72;7309548;19;129589;-40
2023/09/11 06:38:19;;;;;;;127.18;11.13;;;;;;;23.93;62.77;99396.91;7307600;19;130211;-39
2023/09/11 06:40:44;;;;;;;22.67;5.50;;;;;;;23.92;62.06;99395.25;7306943;19;129592;-36
2023/09/11 06:43:09;;;;;;;36.07;5.77;;;;;;;23.91;62.65;99391.81;7310272;19;129260;-38
2023/09/11 06:45:35;;;;;;;54.97;7.10;;;;;;;23.93;62.64;99391.66;7307374;19;130814;-42
2023/09/11 06:48:01;;;;;;;36.77;5.70;;;;;;;23.91;62.71;99386.56;7307169;19;129199;-42
2023/09/11 06:50:27;;;;;;;77.13;8.10;;;;;;;23.91;62.04;99381.31;7307283;19;129446;-42
2023/09/11 06:52:52;;;;;;;31.67;5.90;;;;;;;23.90;62.18;99389.34;7308493;19;130645;-39
2023/09/11 06:55:17;;;;;;;60.20;7.20;;;;;;;23.92;62.58;99379.50;7308185;19;129744;-44
2023/09/11 06:58:03;;;;;;;52.37;7.03;;;;;;;23.81;63.64;99366.66;7309365;19;130110;-38
2023/09/11 07:00:28;;;;;;;86.35;8.55;;;;;;;23.91;62.72;99381.31;7303276;19;129539;-41
2023/09/11 07:02:55;;;;;;;39.83;6.30;;;;;;;23.80;62.86;99362.41;7307789;19;129100;-42
2023/09/11 07:05:22;;;;;;;73.55;7.95;;;;;;;23.90;62.49;99382.28;7297181;19;129796;-39
2023/09/11 07:07:47;;;;;;;;;;;;;;;23.96;62.83;99386.91;7307360;19;130643;-38
2023/09/11 07:10:19;;;;;;;120.07;10.37;;;;;;;23.92;62.48;99390.81;7297139;19;129582;-40
2023/09/11 07:12:46;;;;;;;43.95;6.45;;;;;;;23.92;62.43;99388.19;7307258;19;131117;-36
2023/09/11 07:15:11;;;;;;;67.93;7.90;;;;;;;23.90;61.96;99386.72;7306942;19;130055;-43
2023/09/11 07:17:37;;;;;;;109.60;9.70;;;;;;;23.80;62.07;99365.84;7302730;19;130192;-41
2023/09/11 07:20:04;;;;;;;40.13;6.37;;;;;;;23.93;62.09;99392.44;7302709;19;131414;-37
2023/09/11 07:22:29;;;;;;;35.53;6.38;;;;;;;23.92;62.71;99387.38;7306911;19;129602;-41
2023/09/11 07:24:55;;;;;;;116.93;10.33;;;;;;;23.93;62.39;99391.66;7302703;19;132276;-42
2023/09/11 07:27:20;;;;;;;69.17;7.23;;;;;;;23.92;62.45;99390.81;7300683;19;132420;-40
2023/09/11 07:29:46;;;;;;;49.83;6.20;;;;;;;23.91;62.43;99389.19;7301117;19;129577;-40
2023/09/11 07:32:11;;;;;;;39.93;5.83;;;;;;;23.92;62.71;99385.56;7306427;19;130091;-37
2023/09/11 07:34:37;;;;;;;38.97;6.17;;;;;;;23.86;62.02;99372.25;7308001;19;130463;-42
2023/09/11 07:37:03;;;;;;;74.03;7.47;;;;;;;23.94;62.41;99388.03;7308543;19;129501;-38
2023/09/11 07:39:29;;;;;;;49.60;6.78;;;;;;;23.93;62.39;99383.78;7307231;19;129115;-44
2023/09/11 07:41:54;;;;;;;55.23;6.87;;;;;;;23.92;61.98;99379.50;7302997;19;129754;-43
2023/09/11 07:44:19;;;;;;;53.50;6.23;;;;;;;23.93;61.95;99378.53;7304980;19;129283;-41
2023/09/11 07:46:45;;;;;;;51.60;6.47;;;;;;;23.93;62.28;99375.91;7304127;19;132506;-41
2023/09/11 07:49:10;;;;;;;111.20;9.50;;;;;;;23.94;62.16;99383.63;7307383;19;129097;-37
2023/09/11 07:51:35;;;;;;;65.73;7.07;;;;;;;23.94;62.54;99388.88;7308210;19;129976;-40
2023/09/11 07:54:01;;;;;;;57.00;7.10;;;;;;;23.94;61.99;99388.03;7307607;19;131021;-42
2023/09/11 07:56:26;;;;;;;71.37;7.17;;;;;;;23.94;62.22;99383.63;7307457;19;129183;-43
2023/09/11 07:58:51;;;;;;;96.20;9.27;;;;;;;23.86;62.25;99367.84;7305162;19;130563;-39
2023/09/11 08:01:25;;;;;;;91.40;9.23;;;;;;;23.93;62.27;99374.06;7300583;19;129555;-43
2023/09/11 08:03:50;;;;;;;36.53;6.25;;;;;;;23.94;62.52;99374.91;7309622;19;129203;-41
2023/09/11 08:06:16;;;;;;;66.93;7.27;;;;;;;23.93;62.29;99371.44;7306789;19;129610;-45
2023/09/11 08:08:41;;;;;;;31.00;4.93;;;;;;;23.84;61.96;99356.66;7307748;19;129500;-41
2023/09/11 08:11:16;;;;;;;72.83;7.50;;;;;;;23.94;63.15;99367.03;7305578;19;129239;-43
2023/09/11 08:13:42;;;;;;;37.17;5.65;;;;;;;23.93;62.31;99374.06;7309918;19;130211;-40
2023/09/11 08:16:08;;;;;;;89.60;8.32;;;;;;;23.93;62.02;99368.03;7306555;19;129838;-43
2023/09/11 08:18:34;;;;;;;48.67;6.28;;;;;;;23.93;62.34;99363.56;7307542;19;129281;-39
2023/09/11 08:21:00;;;;;;;36.83;5.97;;;;;;;23.94;62.34;99367.84;7307433;19;129194;-41
2023/09/11 08:23:25;;;;;;;50.83;6.53;;;;;;;23.91;62.28;99356.84;7308224;19;129610;-39
2023/09/11 08:25:58;;;;;;;77.00;7.50;;;;;;;23.93;62.63;99363.56;7307115;19;130357;-42
2023/09/11 08:28:24;;;;;;;47.53;6.38;;;;;;;23.93;62.02;99352.28;7308895;19;129747;-41
2023/09/11 08:30:52;;;;;;;16.47;4.70;;;;;;;23.92;62.12;99359.31;7303879;19;129456;-39
2023/09/11 08:33:18;;;;;;;62.25;7.22;;;;;;;23.92;61.97;99359.31;7306385;19;130886;-38
2023/09/11 08:35:43;;;;;;;75.50;7.17;;;;;;;23.90;62.07;99350.78;7312838;19;129948;-37
2023/09/11 08:38:09;;;;;;;64.07;7.00;;;;;;;23.93;62.69;99358.31;7315915;19;129156;-41
2023/09/11 08:40:35;;;;;;;60.57;6.77;;;;;;;23.93;62.68;99360.94;7310501;19;130095;-37
2023/09/11 08:43:02;;;;;;;33.10;5.17;;;;;;;23.91;62.19;99357.69;7313375;19;130602;-41
2023/09/11 08:45:27;;;;;;;84.50;7.93;;;;;;;23.93;62.82;99365.41;7313521;19;130334;-39
2023/09/11 08:47:55;;;;;;;69.83;7.67;;;;;;;23.92;62.93;99364.56;7316087;19;130278;-40
2023/09/11 08:50:25;;;;;;;47.50;6.18;;;;;;;23.82;62.92;99349.91;7310198;19;130645;-40
2023/09/11 08:52:51;;;;;;;76.22;7.70;;;;;;;23.92;62.33;99363.72;7312994;19;129756;-43
2023/09/11 08:55:19;;;;;;;97.70;8.30;;;;;;;23.92;62.15;99366.34;7314865;19;130022;-40
2023/09/11 08:57:45;;;;;;;60.40;7.00;;;;;;;23.90;62.06;99353.41;7308894;19;131592;-41
2023/09/11 09:00:13;;;;;;;64.27;7.33;;;;;;;23.92;62.69;99363.72;7310222;19;130764;-39
2023/09/11 09:02:39;;;;;;;48.72;6.13;;;;;;;23.93;62.09;99360.16;7314358;19;130493;-41
2023/09/11 09:05:06;;;;;;;128.47;9.83;;;;;;;23.91;62.19;99360.31;7309945;19;129541;-41
2023/09/11 09:07:32;;;;;;;47.95;6.00;;;;;;;23.93;62.60;99360.94;7314978;19;129000;-36
2023/09/11 09:09:57;;;;;;;65.10;7.75;;;;;;;23.91;61.95;99355.06;7311607;19;129679;-40
2023/09/11 09:12:24;;;;;;;90.07;8.57;;;;;;;23.93;62.64;99355.69;7313521;19;129108;-41
2023/09/11 09:14:49;;;;;;;;;;;;;;;23.98;62.96;99358.69;7314223;19;130280;-39
2023/09/11 09:17:15;;;;;;;22.77;4.80;;;;;;;23.93;62.72;99355.69;7312992;19;128939;-38
2023/09/11 09:19:40;;;;;;;32.10;5.03;;;;;;;23.93;62.46;99357.50;7312582;19;130076;-36
2023/09/11 09:22:05;;;;;;;68.93;6.90;;;;;;;23.93;61.95;99355.69;7306733;19;129184;-44
2023/09/11 09:24:31;;;;;;;86.27;7.67;;;;;;;23.93;62.86;99350.44;7306346;19;129513;-39
2023/09/11 09:27:02;;;;;;;77.15;7.57;;;;;;;23.91;63.12;99347.19;7300810;19;130736;-42
2023/09/11 09:29:38;;;;;;;100.15;9.15;;;;;;;23.91;63.17;99341.94;7301997;19;129356;-38
2023/09/11 09:32:05;;;;;;;77.38;7.85;;;;;;;23.93;62.16;99353.06;7304656;19;130440;-39
2023/09/11 09:34:36;;;;;;;99.55;8.48;;;;;;;23.91;63.54;99341.94;7305051;19;129566;-40
2023/09/11 09:37:02;;;;;;;108.30;8.95;;;;;;;23.93;62.84;99339.94;7305268;19;129267;-45
2023/09/11 09:39:28;;;;;;;94.00;8.85;;;;;;;23.94;62.28;99330.25;7302770;19;130273;-41
2023/09/11 09:42:00;;;;;;;48.65;6.07;;;;;;;23.94;62.67;99335.50;7304777;19;132074;-43
2023/09/11 09:44:29;;;;;;;75.07;7.75;;;;;;;23.93;63.05;99333.88;7304030;19;130105;-42
2023/09/11 09:46:54;;;;;;;137.68;10.52;;;;;;;23.93;62.47;99328.63;7302196;19;129805;-37
2023/09/11 09:49:23;;;;;;;98.57;8.50;;;;;;;23.93;62.76;99324.19;7306330;19;129679;-37
2023/09/11 09:51:49;;;;;;;66.95;7.65;;;;;;;23.93;62.87;99315.50;7309338;19;130240;-36
2023/09/11 09:54:14;;;;;;;84.20;7.77;;;;;;;23.84;62.10;99298.91;7300705;19;130268;-41
2023/09/11 09:56:40;;;;;;;118.53;9.73;;;;;;;23.94;62.46;99304.84;7304307;19;130349;-37
2023/09/11 09:59:07;;;;;;;37.20;5.67;;;;;;;23.93;62.68;99300.56;7312505;19;130852;-40
2023/09/11 10:01:43;;;;;;;49.47;5.88;;;;;;;23.95;63.38;99300.38;7309171;19;129119;-41
2023/09/11 10:04:15;;;;;;;30.30;5.23;;;;;;;23.94;63.07;99296.13;7311717;19;129910;-40
2023/09/11 10:06:41;;;;;;;65.63;6.68;;;;;;;23.93;61.92;99297.91;7310764;19;130176;-41
2023/09/11 10:09:08;;;;;;;64.00;6.73;;;;;;;23.93;62.51;99291.88;7310220;19;129181;-41
2023/09/11 10:11:34;;;;;;;107.53;9.27;;;;;;;23.93;62.11;99297.91;7305789;19;129421;-44
2023/09/11 10:14:02;;;;;;;33.38;5.05;;;;;;;23.82;63.04;99274.63;7312427;19;129306;-36
2023/09/11 10:16:30;;;;;;;44.63;5.65;;;;;;;23.82;62.85;99269.38;7313534;19;129566;-41
2023/09/11 10:18:57;;;;;;;66.57;6.30;;;;;;;23.91;62.31;99283.31;7312855;19;129548;-41
2023/09/11 10:21:23;;;;;;;31.60;5.05;;;;;;;23.91;62.43;99284.16;7314083;19;130493;-41
2023/09/11 10:23:49;;;;;;;;;;;;;;;23.97;62.88;99278.25;7307103;19;130478;-40
2023/09/11 10:26:23;;;;;;;46.55;5.85;;;;;;;23.91;62.81;99278.91;7311233;19;129035;-37
2023/09/11 10:28:51;;;;;;;113.78;9.13;;;;;;;23.90;62.89;99272.00;7309012;19;130179;-43
2023/09/11 10:31:23;;;;;;;31.08;4.68;;;;;;;23.91;62.86;99264.94;7305574;19;131098;-36
2023/09/11 10:33:56;;;;;;;41.00;5.70;;;;;;;23.88;62.46;99260.03;7312710;19;129636;-42
2023/09/11 10:36:23;;;;;;;32.25;5.20;;;;;;;23.90;62.79;99258.06;7308260;19;129578;-43
2023/09/11 10:38:51;;;;;;;46.80;5.90;;;;;;;23.90;62.41;99251.00;7308568;19;131035;-41
2023/09/11 10:41:17;;;;;;;88.90;7.88;;;;;;;23.91;62.12;99254.44;7309661;19;129499;-43
2023/09/11 10:43:45;;;;;;;47.93;6.37;;;;;;;23.88;62.16;99247.69;7311533;19;130244;-39
2023/09/11 10:46:22;;;;;;;62.65;6.63;;;;;;;23.91;63.05;99252.66;7308305;19;128974;-42
2023/09/11 10:48:48;;;;;;;;;;;;;;;23.97;62.88;99256.41;7312395;19;129286;-41
2023/09/11 10:51:14;;;;;;;69.57;6.60;;;;;;;23.81;62.71;99238.03;7307520;19;129394;-40
2023/09/11 10:53:40;;;;;;;;;;;;;;;23.97;63.01;99259.88;7311814;19;129355;-39
2023/09/11 10:56:06;;;;;;;16.80;4.45;;;;;;;23.91;62.16;99242.16;7310786;19;128879;-39
2023/09/11 10:58:31;;;;;;;50.47;6.13;;;;;;;23.91;62.57;99242.16;7305485;19;129155;-40
2023/09/11 11:00:57;;;;;;;83.43;7.30;;;;;;;23.91;62.36;99249.19;7308743;19;130488;-39
2023/09/11 11:03:30;;;;;;;33.73;5.00;;;;;;;23.90;63.25;99243.13;7311437;19;129193;-41
2023/09/11 11:05:58;;;;;;;49.38;5.78;;;;;;;23.83;62.92;99231.63;7310685;19;129196;-40
2023/09/11 11:08:24;;;;;;;64.25;7.18;;;;;;;23.83;62.35;99231.63;7308053;19;129993;-41
2023/09/11 11:11:00;;;;;;;59.33;6.10;;;;;;;23.90;62.16;99240.50;7307675;19;130098;-39
2023/09/11 11:13:26;;;;;;;78.50;7.05;;;;;;;23.91;62.48;99236.91;7306107;19;130829;-38